Terminal Aerodrome Forecast
Issued by NWS Topeka, KS

Home | Current Version | Previous Version | Text Only | Print | Product List | Glossary On
Versions: 1 2 3 4 5 6 7 8 9 10 11 12 13 14 15 16 17 18 19 20 21 22
000
FTUS43 KTOP 280542
TAFTOP
TAF
KTOP 280542Z 2806/0106 18013G20KT P6SM SCT008 BKN015 WS015/20050KT
      TEMPO 2807/2811 BKN008
     FM281400 19012KT P6SM BKN040
     FM281700 22012G20KT P6SM BKN200
     FM010000 31010KT P6SM -RA BKN090=

USA.gov is the U.S. government's official web portal to all federal, state and local government web resources and services.